| time (UTC) | temp F | wind direction | speed MPH | gust MPH | rain 1hr in | rain 24hr in | rain mn in | humidity % | barometer mb |
| 20260905080148 | 67 | 23 | 13.0 | 22.0 | 0.00 | 0.02 | 0.00 | 64 | 1003.4 |
| 20260905075517 | 67 | 23 | 12.0 | 18.0 | 0.00 | 0.02 | 0.00 | 65 | 1003.3 |
| 20260905074732 | 67 | 23 | 12.0 | 21.0 | 0.00 | 0.02 | 0.00 | 67 | 1003.3 |
| 20260905074052 | 66 | 45 | 13.0 | 21.0 | 0.00 | 0.02 | 0.00 | 69 | 1003.1 |
| 20260905072656 | 64 | 45 | 12.0 | 17.0 | 0.00 | 0.02 | 0.00 | 72 | 1003.1 |
| 20260905072018 | 64 | 68 | 10.0 | 18.0 | 0.00 | 0.02 | 0.00 | 73 | 1003.1 |
| 20260905064454 | 64 | 45 | 12.0 | 24.0 | 0.00 | 0.02 | 0.00 | 73 | 1002.5 |
| 20260905064057 | 63 | 45 | 9.0 | 17.0 | 0.00 | 0.02 | 0.00 | 75 | 1002.3 |
| 20260905063734 | 63 | 45 | 9.0 | 17.0 | 0.00 | 0.02 | 0.00 | 75 | 1002.3 |
| 20260905063054 | 63 | 45 | 10.0 | 17.0 | 0.00 | 0.02 | 0.00 | 75 | 1002.3 |
| 20260905062334 | 63 | 45 | 9.0 | 17.0 | 0.00 | 0.02 | 0.00 | 75 | 1002.1 |
| 20260905061634 | 62 | 45 | 10.0 | 16.0 | 0.00 | 0.02 | 0.00 | 74 | 1001.9 |
| 20260905060947 | 62 | 68 | 8.0 | 16.0 | 0.00 | 0.02 | 0.00 | 77 | 1001.9 |
| 20260905060235 | 61 | 45 | 9.0 | 21.0 | 0.00 | 0.02 | 0.00 | 77 | 1002.1 |
| 20260905055555 | 61 | 23 | 9.0 | 20.0 | 0.00 | 0.02 | 0.00 | 78 | 1002.0 |
| 20260905054855 | 60 | 45 | 8.0 | 16.0 | 0.00 | 0.02 | 0.00 | 78 | 1002.0 |
| 20260905054135 | 60 | 45 | 6.0 | 14.0 | 0.00 | 0.02 | 0.00 | 77 | 1001.9 |
| 20260905053451 | 61 | 45 | 7.0 | 14.0 | 0.00 | 0.02 | 0.00 | 76 | 1001.9 |
| 20260905052735 | 62 | 23 | 6.0 | 13.0 | 0.00 | 0.02 | 0.00 | 75 | 1001.9 |
| 20260905052040 | 62 | 45 | 5.0 | 11.0 | 0.00 | 0.02 | 0.00 | 74 | 1001.9 |
| 20260905051340 | 62 | 45 | 7.0 | 13.0 | 0.00 | 0.02 | 0.00 | 75 | 1001.9 |
| 20260905050636 | 61 | 45 | 6.0 | 13.0 | 0.00 | 0.02 | 0.00 | 76 | 1001.8 |
| 20260905045936 | 60 | 45 | 7.0 | 13.0 | 0.00 | 0.02 | 0.00 | 76 | 1001.6 |
| 20260905045237 | 60 | 45 | 5.0 | 13.0 | 0.00 | 0.02 | 0.00 | 76 | 1001.4 |
| 20260905044536 | 60 | 45 | 6.0 | 13.0 | 0.00 | 0.02 | 0.00 | 77 | 1001.4 |
| 20260905043837 | 59 | 68 | 6.0 | 13.0 | 0.00 | 0.02 | 0.00 | 79 | 1001.3 |
| 20260905043137 | 59 | 68 | 6.0 | 16.0 | 0.00 | 0.02 | 0.00 | 78 | 1001.0 |
| 20260905042438 | 59 | 68 | 8.0 | 16.0 | 0.00 | 0.02 | 0.00 | 78 | 1001.1 |
| 20260905041741 | 59 | 45 | 8.0 | 16.0 | 0.00 | 0.02 | 0.00 | 78 | 1001.1 |
| 20260905041037 | 60 | 90 | 9.0 | 16.0 | 0.00 | 0.02 | 0.00 | 78 | 1000.9 |
| 20260905040337 | 60 | 45 | 11.0 | 22.0 | 0.00 | 0.02 | 0.00 | 77 | 1000.7 |
| 20260905034950 | 61 | 45 | 9.0 | 13.0 | 0.00 | 0.02 | 0.00 | 77 | 1000.2 |
| 20260905034238 | 61 | 45 | 10.0 | 21.0 | 0.00 | 0.02 | 0.00 | 78 | 1000.0 |
| 20260905033538 | 61 | 23 | 11.0 | 17.0 | 0.00 | 0.02 | 0.00 | 79 | 999.9 |
| 20260905032838 | 61 | 45 | 10.0 | 23.0 | 0.00 | 0.02 | 0.00 | 81 | 999.7 |
| 20260905032139 | 62 | 23 | 9.0 | 18.0 | 0.00 | 0.02 | 0.00 | 83 | 999.7 |
| 20260905031515 | 62 | 23 | 9.0 | 18.0 | 0.00 | 0.02 | 0.00 | 83 | 999.6 |
| 20260905030739 | 62 | 45 | 9.0 | 16.0 | 0.00 | 0.02 | 0.00 | 84 | 999.4 |
| 20260905030039 | 62 | 45 | 9.0 | 17.0 | 0.00 | 0.02 | 0.00 | 84 | 999.4 |
| 20260905025339 | 62 | 45 | 10.0 | 18.0 | 0.00 | 0.02 | 0.00 | 84 | 999.4 |
| 20260905024647 | 62 | 23 | 12.0 | 21.0 | 0.00 | 0.02 | 0.00 | 84 | 999.0 |
| 20260905024012 | 62 | 45 | 9.0 | 19.0 | 0.00 | 0.02 | 0.00 | 84 | 999.0 |
| 20260905023325 | 62 | 23 | 10.0 | 19.0 | 0.00 | 0.02 | 0.00 | 84 | 999.0 |
| 20260905022620 | 62 | 23 | 12.0 | 19.0 | 0.00 | 0.02 | 0.00 | 84 | 999.1 |
| 20260905021840 | 62 | 23 | 10.0 | 18.0 | 0.00 | 0.02 | 0.00 | 84 | 999.0 |
| 20260905021141 | 62 | 23 | 10.0 | 18.0 | 0.00 | 0.02 | 0.00 | 84 | 999.0 |
| 20260905020526 | 62 | 359 | 0.0 | 0.0 | 0.00 | 0.02 | 0.00 | 84 | 999.0 |
| 20260905015826 | 62 | 23 | 11.0 | 20.0 | 0.00 | 0.02 | 0.00 | 84 | 998.7 |
| 20260905015125 | 62 | 23 | 11.0 | 21.0 | 0.00 | 0.02 | 0.00 | 84 | 998.6 |
| 20260905014426 | 62 | 359 | 0.0 | 0.0 | 0.00 | 0.02 | 0.00 | 83 | 998.5 |
| 20260905013726 | 212 | 359 | 0.0 | 0.0 | 0.00 | 0.00 | 0.00 | 100 | |
| 20260905012949 | 63 | 45 | 13.0 | 21.0 | 0.00 | 0.02 | 0.00 | 83 | 998.5 |
| 20260905012327 | 63 | 45 | 13.0 | 22.0 | 0.00 | 0.02 | 0.00 | 82 | 998.5 |
| 20260905011610 | 63 | 45 | 13.0 | 21.0 | 0.00 | 0.02 | 0.00 | 82 | 998.5 |
| 20260905010906 | 63 | 45 | 12.0 | 21.0 | 0.00 | 0.02 | 0.00 | 83 | 998.5 |
| 20260905010154 | 63 | 45 | 13.0 | 17.0 | 0.00 | 0.02 | 0.00 | 82 | 998.3 |
| 20260905005526 | 64 | 45 | 12.0 | 18.0 | 0.00 | 0.02 | 0.00 | 83 | 998.0 |
| 20260905004827 | 64 | 45 | 11.0 | 17.0 | 0.00 | 0.02 | 0.00 | 83 | 997.9 |
| 20260905004128 | 64 | 45 | 11.0 | 19.0 | 0.00 | 0.02 | 0.00 | 83 | 997.6 |
| 20260905002728 | 64 | 23 | 13.0 | 19.0 | 0.00 | 0.02 | 0.00 | 84 | 997.8 |
| 20260905002028 | 64 | 23 | 12.0 | 19.0 | 0.00 | 0.02 | 0.00 | 85 | 997.5 |
| 20260905001328 | 64 | 23 | 12.0 | 19.0 | 0.00 | 0.02 | 0.00 | 86 | 997.4 |
| 20260905000612 | 64 | 23 | 12.0 | 19.0 | 0.00 | 0.02 | 0.00 | 86 | 997.4 |
| 20260904235844 | 64 | 23 | 11.0 | 18.0 | 0.00 | 0.02 | 0.00 | 88 | 997.4 |
| 20260904235208 | 64 | 0 | 12.0 | 19.0 | 0.00 | 0.02 | 0.00 | 88 | 997.5 |
| 20260904234516 | 64 | 23 | 11.0 | 17.0 | 0.00 | 0.02 | 0.00 | 88 | 997.5 |
| 20260904233748 | 64 | 23 | 10.0 | 16.0 | 0.00 | 0.02 | 0.00 | 88 | 997.4 |
| 20260904232344 | 64 | 23 | 9.0 | 16.0 | 0.00 | 0.02 | 0.00 | 89 | 997.0 |
| 20260904231730 | 64 | 23 | 9.0 | 13.0 | 0.00 | 0.02 | 0.00 | 89 | 997.2 |
| 20260904230957 | 64 | 23 | 9.0 | 17.0 | 0.00 | 0.02 | 0.00 | 89 | 997.4 |
| 20260904230245 | 64 | 23 | 12.0 | 17.0 | 0.00 | 0.02 | 0.00 | 89 | 997.4 |
| 20260904225630 | 64 | 23 | 11.0 | 18.0 | 0.00 | 0.02 | 0.00 | 90 | 997.5 |
| 20260904224922 | 64 | 23 | 9.0 | 13.0 | 0.00 | 0.02 | 0.00 | 91 | 997.4 |
| 20260904224146 | 64 | 23 | 8.0 | 14.0 | 0.00 | 0.02 | 0.00 | 91 | 997.4 |
| 20260904223531 | 64 | 23 | 7.0 | 14.0 | 0.00 | 0.02 | 0.00 | 91 | 997.2 |
| 20260904222746 | 64 | 23 | 5.0 | 12.0 | 0.00 | 0.02 | 0.00 | 91 | 997.0 |
| 20260904222106 | 64 | 23 | 5.0 | 9.0 | 0.00 | 0.02 | 0.00 | 90 | 996.9 |
| 20260904221431 | 64 | 23 | 4.0 | 8.0 | 0.00 | 0.02 | 0.00 | 90 | 996.7 |
| 20260904220718 | 64 | 23 | 3.0 | 10.0 | 0.00 | 0.02 | 0.00 | 89 | 996.9 |
| 20260904220032 | 64 | 23 | 4.0 | 11.0 | 0.00 | 0.02 | 0.00 | 89 | 996.8 |
| 20260904215259 | 64 | 23 | 5.0 | 12.0 | 0.00 | 0.02 | 0.00 | 89 | 996.9 |
| 20260904214632 | 64 | 23 | 4.0 | 13.0 | 0.00 | 0.02 | 0.00 | 89 | 996.8 |
| 20260904213232 | 64 | 45 | 7.0 | 13.0 | 0.00 | 0.02 | 0.00 | 88 | 996.9 |
| 20260904212528 | 64 | 45 | 4.0 | 12.0 | 0.00 | 0.02 | 0.00 | 88 | 996.9 |
| 20260904211833 | 64 | 45 | 4.0 | 9.0 | 0.00 | 0.02 | 0.00 | 87 | 996.3 |
| 20260904211112 | 64 | 45 | 5.0 | 10.0 | 0.00 | 0.02 | 0.00 | 87 | 996.3 |
| 20260904210433 | 64 | 45 | 5.0 | 16.0 | 0.00 | 0.02 | 0.00 | 87 | 996.5 |
| 20260904205733 | 64 | 23 | 6.0 | 12.0 | 0.00 | 0.02 | 0.00 | 87 | 996.5 |
| 20260904205033 | 64 | 23 | 8.0 | 17.0 | 0.00 | 0.02 | 0.00 | 87 | 996.7 |
| 20260904204332 | 64 | 45 | 7.0 | 17.0 | 0.00 | 0.02 | 0.00 | 87 | 996.4 |
| 20260904203634 | 64 | 23 | 9.0 | 17.0 | 0.00 | 0.02 | 0.00 | 87 | 996.4 |
| 20260904202934 | 64 | 23 | 8.0 | 14.0 | 0.00 | 0.02 | 0.00 | 87 | 996.6 |
| 20260904202234 | 64 | 23 | 9.0 | 17.0 | 0.02 | 0.02 | 0.00 | 87 | 996.6 |
| 20260904201534 | 64 | 23 | 7.0 | 15.0 | 0.02 | 0.02 | 0.00 | 88 | 996.8 |
| 20260904200750 | 63 | 45 | 7.0 | 14.0 | 0.02 | 0.02 | 0.00 | 88 | 996.6 |
| 20260904200130 | 64 | 45 | 7.0 | 17.0 | 0.02 | 0.02 | 0.00 | 88 | 996.1 |
| 20260904195435 | 64 | 45 | 8.0 | 17.0 | 0.02 | 0.02 | 0.00 | 87 | 996.2 |
| 20260904194735 | 65 | 68 | 8.0 | 18.0 | 0.02 | 0.02 | 0.00 | 86 | 996.7 |
| 20260904194030 | 66 | 45 | 10.0 | 22.0 | 0.02 | 0.02 | 0.00 | 86 | 996.6 |
| 20260904193307 | 68 | 45 | 14.0 | 26.0 | 0.02 | 0.02 | 0.00 | 85 | 996.1 |
| 20260904192636 | 68 | 0 | 11.0 | 21.0 | 0.02 | 0.02 | 0.00 | 82 | 995.3 |
| 20260904191936 | 68 | 0 | 9.0 | 18.0 | 0.00 | 0.00 | 0.00 | 81 | 994.9 |
| 20260904191236 | 69 | 0 | 9.0 | 13.0 | 0.00 | 0.00 | 0.00 | 79 | 994.9 |
| 20260904190459 | 70 | 0 | 12.0 | 19.0 | 0.00 | 0.00 | 0.00 | 76 | 995.0 |
| 20260904185807 | 70 | 0 | 13.0 | 18.0 | 0.00 | 0.00 | 0.00 | 75 | 995.0 |
| 20260904185137 | 70 | 23 | 13.0 | 18.0 | 0.00 | 0.00 | 0.00 | 74 | 995.0 |
| 20260904184436 | 71 | 23 | 14.0 | 19.0 | 0.00 | 0.00 | 0.00 | 71 | 995.0 |
| 20260904183737 | 72 | 0 | 14.0 | 20.0 | 0.00 | 0.00 | 0.00 | 69 | 994.6 |
| 20260904183037 | 73 | 0 | 15.0 | 23.0 | 0.00 | 0.00 | 0.00 | 67 | 995.1 |
| 20260904182337 | 73 | 0 | 15.0 | 21.0 | 0.00 | 0.00 | 0.00 | 67 | 994.8 |
| 20260904181637 | 72 | 0 | 16.0 | 21.0 | 0.00 | 0.00 | 0.00 | 67 | 995.2 |
| 20260904180937 | 72 | 0 | 13.0 | 17.0 | 0.00 | 0.00 | 0.00 | 68 | 995.3 |
| 20260904180157 | 72 | 0 | 13.0 | 21.0 | 0.00 | 0.00 | 0.00 | 69 | 995.4 |
| 20260904174138 | 71 | 0 | 9.0 | 14.0 | 0.00 | 0.00 | 0.00 | 70 | 995.8 |
| 20260904173439 | 71 | 359 | 0.0 | 0.0 | 0.00 | 0.00 | 0.00 | 70 | 995.8 |
| 20260904172653 | 71 | 0 | 12.0 | 17.0 | 0.00 | 0.00 | 0.00 | 71 | 996.1 |
| 20260904171954 | 71 | 0 | 13.0 | 20.0 | 0.00 | 0.00 | 0.00 | 71 | 996.0 |
| 20260904171326 | 71 | 0 | 11.0 | 17.0 | 0.00 | 0.00 | 0.00 | 71 | 995.9 |
| 20260904170554 | 71 | 0 | 11.0 | 20.0 | 0.00 | 0.00 | 0.00 | 71 | 996.1 |
| 20260904165854 | 71 | 0 | 11.0 | 18.0 | 0.00 | 0.00 | 0.00 | 71 | 996.4 |
| 20260904165159 | 71 | 0 | 10.0 | 18.0 | 0.00 | 0.00 | 0.00 | 70 | 996.7 |
| 20260904164454 | 71 | 0 | 10.0 | 15.0 | 0.00 | 0.00 | 0.00 | 70 | 996.9 |
| 20260904163755 | 71 | 0 | 9.0 | 13.0 | 0.00 | 0.00 | 0.00 | 69 | 997.1 |
| 20260904163103 | 72 | 0 | 10.0 | 14.0 | 0.00 | 0.00 | 0.00 | 69 | 997.3 |
| 20260904162355 | 72 | 0 | 11.0 | 18.0 | 0.00 | 0.00 | 0.00 | 68 | 997.4 |
| 20260904161655 | 72 | 23 | 11.0 | 17.0 | 0.00 | 0.00 | 0.00 | 68 | 997.4 |
| 20260904160956 | 72 | 23 | 12.0 | 17.0 | 0.00 | 0.00 | 0.00 | 68 | 997.8 |
| 20260904160256 | 72 | 0 | 13.0 | 21.0 | 0.00 | 0.00 | 0.00 | 67 | 997.9 |
| 20260904155604 | 72 | 0 | 13.0 | 21.0 | 0.00 | 0.00 | 0.00 | 67 | 997.8 |
| 20260904154900 | 73 | 0 | 12.0 | 19.0 | 0.00 | 0.00 | 0.00 | 67 | 997.8 |
| 20260904154156 | 73 | 0 | 13.0 | 18.0 | 0.00 | 0.00 | 0.00 | 66 | 997.7 |
| 20260904153456 | 73 | 0 | 12.0 | 17.0 | 0.00 | 0.00 | 0.00 | 66 | 997.7 |
| 20260904152757 | 73 | 0 | 15.0 | 21.0 | 0.00 | 0.00 | 0.00 | 65 | 998.0 |
| 20260904152057 | 73 | 0 | 13.0 | 17.0 | 0.00 | 0.00 | 0.00 | 65 | 997.9 |
| 20260904150657 | 73 | 0 | 12.0 | 18.0 | 0.00 | 0.00 | 0.00 | 63 | 998.4 |
| 20260904145957 | 73 | 0 | 10.0 | 16.0 | 0.00 | 0.00 | 0.00 | 63 | 998.3 |
| 20260904145306 | 73 | 0 | 10.0 | 17.0 | 0.00 | 0.00 | 0.00 | 63 | 998.6 |
| 20260904144558 | 73 | 0 | 9.0 | 17.0 | 0.00 | 0.00 | 0.00 | 62 | 998.6 |
| 20260904143926 | 73 | 0 | 10.0 | 17.0 | 0.00 | 0.00 | 0.00 | 62 | 998.9 |
| 20260904143202 | 73 | 0 | 10.0 | 14.0 | 0.00 | 0.00 | 0.00 | 62 | 998.9 |
| 20260904142518 | 73 | 0 | 8.0 | 14.0 | 0.00 | 0.00 | 0.00 | 63 | 999.3 |
| 20260904141127 | 73 | 0 | 9.0 | 15.0 | 0.00 | 0.00 | 0.00 | 61 | 999.5 |
| 20260904140403 | 73 | 0 | 13.0 | 18.0 | 0.00 | 0.00 | 0.00 | 61 | 999.6 |
| 20260904135703 | 74 | 0 | 10.0 | 17.0 | 0.00 | 0.00 | 0.00 | 61 | 999.7 |
| 20260904134959 | 74 | 0 | 13.0 | 19.0 | 0.00 | 0.00 | 0.00 | 59 | 1000.0 |
| 20260904134300 | 75 | 0 | 13.0 | 17.0 | 0.00 | 0.00 | 0.00 | 58 | 1000.2 |
| 20260904132924 | 74 | 0 | 12.0 | 17.0 | 0.00 | 0.00 | 0.00 | 60 | 1000.5 |
| 20260904132200 | 74 | 0 | 12.0 | 21.0 | 0.00 | 0.00 | 0.00 | 60 | 1000.5 |
| 20260904131520 | 74 | 0 | 11.0 | 18.0 | 0.00 | 0.00 | 0.00 | 60 | 1000.7 |
| 20260904130845 | 73 | 23 | 13.0 | 20.0 | 0.00 | 0.00 | 0.00 | 61 | 1000.8 |
| 20260904130145 | 73 | 0 | 10.0 | 18.0 | 0.00 | 0.00 | 0.00 | 61 | 1001.0 |
| 20260904125446 | 73 | 23 | 12.0 | 17.0 | 0.00 | 0.00 | 0.00 | 60 | 1001.2 |
| 20260904124746 | 74 | 23 | 12.0 | 17.0 | 0.00 | 0.00 | 0.00 | 59 | 1001.3 |
| 20260904124009 | 74 | 0 | 12.0 | 21.0 | 0.00 | 0.00 | 0.00 | 58 | 1001.4 |
| 20260904123346 | 74 | 0 | 10.0 | 17.0 | 0.00 | 0.00 | 0.00 | 59 | 1001.4 |
| 20260904122646 | 74 | 0 | 10.0 | 19.0 | 0.00 | 0.00 | 0.00 | 60 | 1001.7 |
| 20260904121901 | 73 | 23 | 9.0 | 16.0 | 0.00 | 0.00 | 0.00 | 61 | 1001.5 |
| 20260904121247 | 73 | 23 | 11.0 | 16.0 | 0.00 | 0.00 | 0.00 | 61 | 1001.6 |
| 20260904120547 | 73 | 23 | 11.0 | 18.0 | 0.00 | 0.00 | 0.00 | 61 | 1001.9 |
| 20260904115847 | 73 | 0 | 11.0 | 16.0 | 0.00 | 0.00 | 0.00 | 61 | 1001.9 |
| 20260904115106 | 72 | 23 | 12.0 | 19.0 | 0.00 | 0.00 | 0.00 | 61 | 1002.0 |
| 20260904114447 | 72 | 23 | 12.0 | 21.0 | 0.00 | 0.00 | 0.00 | 59 | 1002.2 |
| 20260904113748 | 73 | 23 | 10.0 | 17.0 | 0.00 | 0.00 | 0.00 | 60 | 1002.2 |
| 20260904112305 | 74 | 23 | 10.0 | 15.0 | 0.00 | 0.00 | 0.00 | 58 | 1002.6 |
| 20260904111603 | 74 | 23 | 11.0 | 19.0 | 0.00 | 0.00 | 0.00 | 59 | 1002.5 |
| 20260904110931 | 73 | 45 | 12.0 | 17.0 | 0.00 | 0.00 | 0.00 | 59 | 1002.6 |
| 20260904110223 | 73 | 23 | 13.0 | 19.0 | 0.00 | 0.00 | 0.00 | 59 | 1002.6 |
| 20260904105528 | 72 | 23 | 12.0 | 20.0 | 0.00 | 0.00 | 0.00 | 62 | 1002.7 |
| 20260904104804 | 73 | 23 | 11.0 | 20.0 | 0.00 | 0.00 | 0.00 | 61 | 1003.0 |
| 20260904104104 | 72 | 23 | 11.0 | 17.0 | 0.00 | 0.00 | 0.00 | 62 | 1003.1 |
| 20260904103404 | 72 | 23 | 12.0 | 17.0 | 0.00 | 0.00 | 0.00 | 63 | 1002.9 |
| 20260904102048 | 72 | 23 | 12.0 | 19.0 | 0.00 | 0.00 | 0.00 | 63 | 1003.1 |
| 20260904101304 | 72 | 23 | 12.0 | 21.0 | 0.00 | 0.00 | 0.00 | 65 | 1003.2 |
| 20260904100605 | 72 | 0 | 12.0 | 21.0 | 0.00 | 0.00 | 0.00 | 65 | 1003.2 |
| 20260904095933 | 71 | 23 | 12.0 | 19.0 | 0.00 | 0.00 | 0.00 | 66 | 1003.3 |
| 20260904095205 | 71 | 23 | 12.0 | 20.0 | 0.00 | 0.00 | 0.00 | 66 | 1003.4 |
| 20260904094517 | 71 | 23 | 12.0 | 18.0 | 0.00 | 0.00 | 0.00 | 67 | 1003.3 |
| 20260904093825 | 71 | 23 | 9.0 | 16.0 | 0.00 | 0.00 | 0.00 | 68 | 1003.2 |
| 20260904093110 | 71 | 23 | 12.0 | 20.0 | 0.00 | 0.00 | 0.00 | 67 | 1003.3 |
| 20260904092406 | 71 | 45 | 9.0 | 14.0 | 0.00 | 0.00 | 0.00 | 70 | 1003.5 |
| 20260904091706 | 70 | 45 | 8.0 | 14.0 | 0.00 | 0.00 | 0.00 | 71 | 1003.6 |
| 20260904091011 | 71 | 23 | 10.0 | 16.0 | 0.00 | 0.00 | 0.00 | 68 | 1003.7 |
| 20260904090311 | 71 | 23 | 9.0 | 17.0 | 0.00 | 0.00 | 0.00 | 70 | 1003.5 |
| 20260904085607 | 70 | 23 | 8.0 | 15.0 | 0.00 | 0.00 | 0.00 | 71 | 1003.6 |
| 20260904084915 | 70 | 23 | 10.0 | 18.0 | 0.00 | 0.00 | 0.00 | 72 | 1003.9 |
| 20260904084206 | 70 | 23 | 8.0 | 14.0 | 0.00 | 0.00 | 0.00 | 72 | 1003.7 |
| 20260904083507 | 69 | 23 | 9.0 | 16.0 | 0.00 | 0.00 | 0.00 | 74 | 1003.8 |
| 20260904082807 | 68 | 23 | 11.0 | 18.0 | 0.00 | 0.00 | 0.00 | 75 | 1003.9 |
| 20260904082107 | 69 | 23 | 8.0 | 14.0 | 0.00 | 0.00 | 0.00 | 75 | 1003.8 |
| 20260904081407 | 68 | 23 | 8.0 | 16.0 | 0.00 | 0.00 | 0.00 | 76 | 1003.8 |
| 20260904080708 | 68 | 23 | 9.0 | 16.0 | 0.00 | 0.00 | 0.00 | 77 | 1003.9 |